Time;durP1;ratioP1;P1;durP2;ratioP2;P2;SDS_P1;SDS_P2;PMS_P1;PMS_P2;Temp;Humidity;BMP_temperature;BMP_pressure;BME280_temperature;BME280_humidity;BME280_pressure;Samples;Min_cycle;Max_cycle;Signal;HPM_P1;HPM_P2
2023/01/30 00:00:19;;;;;;;3.90;2.00;;;;;;;;;;5068662;28;20044;-45
2023/01/30 00:02:45;;;;;;;2.28;1.88;;;;;;;;;;5068988;28;20060;-49
2023/01/30 00:05:11;;;;;;;2.85;1.85;;;;;;;;;;5056349;28;20107;-46
2023/01/30 00:07:37;;;;;;;2.67;1.55;;;;;;;;;;5056734;28;20079;-49
2023/01/30 00:10:03;;;;;;;2.80;1.98;;;;;;;;;;5053801;28;20112;-44
2023/01/30 00:12:29;;;;;;;2.75;1.92;;;;;;;;;;5062867;28;20088;-48
2023/01/30 00:14:55;;;;;;;2.22;1.83;;;;;;;;;;5053029;28;20037;-46
2023/01/30 00:17:21;;;;;;;2.42;1.88;;;;;;;;;;5056649;28;20026;-47
2023/01/30 00:19:47;;;;;;;2.60;1.70;;;;;;;;;;5055974;28;20032;-46
2023/01/30 00:22:13;;;;;;;2.70;1.95;;;;;;;;;;5056486;28;20028;-46
2023/01/30 00:24:39;;;;;;;3.05;2.08;;;;;;;;;;5056890;28;20033;-44
2023/01/30 00:27:05;;;;;;;2.08;1.88;;;;;;;;;;5064138;28;20090;-46
2023/01/30 00:29:31;;;;;;;2.58;1.75;;;;;;;;;;5052687;28;20033;-44
2023/01/30 00:31:57;;;;;;;3.53;1.90;;;;;;;;;;5056502;28;20046;-48
2023/01/30 00:34:23;;;;;;;3.67;2.55;;;;;;;;;;5054798;28;20040;-49
2023/01/30 00:36:49;;;;;;;2.42;1.60;;;;;;;;;;5064571;28;20436;-46
2023/01/30 00:39:15;;;;;;;2.22;1.70;;;;;;;;;;5058248;28;20028;-46
2023/01/30 00:47:10;;;;;;;2.30;1.75;;;;;;;;;;5056998;28;20123;-48
2023/01/30 00:49:37;;;;;;;2.72;1.88;;;;;;;;;;5057744;28;20052;-47
2023/01/30 00:52:03;;;;;;;2.63;2.13;;;;;;;;;;5056969;28;20039;-46
2023/01/30 00:54:29;;;;;;;2.05;1.52;;;;;;;;;;5057519;28;20028;-48
2023/01/30 00:56:55;;;;;;;2.22;1.77;;;;;;;;;;5056139;28;20022;-47
2023/01/30 00:59:21;;;;;;;2.75;2.17;;;;;;;;;;5049010;28;20032;-45
2023/01/30 01:01:47;;;;;;;2.83;2.17;;;;;;;;;;5054999;28;20509;-48
2023/01/30 01:04:13;;;;;;;1.90;1.70;;;;;;;;;;5059909;28;20041;-46
2023/01/30 01:06:39;;;;;;;2.72;1.75;;;;;;;;;;5066951;28;20052;-48
2023/01/30 01:09:06;;;;;;;2.75;1.90;;;;;;;;;;5067865;28;20029;-46
2023/01/30 01:11:32;;;;;;;3.40;1.75;;;;;;;;;;5064801;28;20392;-48
2023/01/30 01:13:59;;;;;;;2.30;1.80;;;;;;;;;;5062304;28;20111;-45
2023/01/30 01:16:26;;;;;;;1.85;1.50;;;;;;;;;;5068080;28;20075;-46
2023/01/30 01:18:52;;;;;;;2.70;1.83;;;;;;;;;;5068051;28;20086;-46
2023/01/30 01:21:18;;;;;;;2.50;1.95;;;;;;;;;;5065408;28;20025;-46
2023/01/30 01:23:48;;;;;;;2.67;1.92;;;;;;;;;;5066728;28;20046;-45
2023/01/30 01:26:14;;;;;;;1.92;1.73;;;;;;;;;;5067189;28;20036;-48
2023/01/30 01:28:40;;;;;;;1.85;1.40;;;;;;;;;;5069861;28;20024;-45
2023/01/30 01:31:12;;;;;;;2.13;1.90;;;;;;;;;;5067665;28;20025;-44
2023/01/30 01:33:39;;;;;;;2.20;1.80;;;;;;;;;;5064425;28;20037;-45
2023/01/30 01:36:05;;;;;;;2.83;1.88;;;;;;;;;;5066728;28;20032;-45
2023/01/30 01:38:31;;;;;;;2.00;1.60;;;;;;;;;;5067395;28;20020;-45
2023/01/30 01:41:06;;;;;;;2.10;1.58;;;;;;;;;;5070097;28;20095;-46
2023/01/30 01:43:37;;;;;;;2.60;1.70;;;;;;;;;;5070600;28;20477;-47
2023/01/30 01:46:09;;;;;;;1.90;1.50;;;;;;;;;;5070812;28;20037;-46
2023/01/30 01:48:38;;;;;;;3.00;1.60;;;;;;;;;;5070745;28;20037;-45
2023/01/30 01:51:16;;;;;;;2.30;1.80;;;;;;;;;;5070353;28;20032;-45
2023/01/30 01:54:14;;;;;;;1.98;1.52;;;;;;;;;;5067256;28;20525;-47
2023/01/30 01:56:43;;;;;;;2.75;1.95;;;;;;;;;;5015257;28;20479;-45
2023/01/30 01:59:13;;;;;;;2.30;1.70;;;;;;;;;;5068562;28;20648;-46
2023/01/30 02:01:39;;;;;;;2.53;2.13;;;;;;;;;;5071642;28;20052;-45
2023/01/30 02:04:07;;;;;;;2.17;1.55;;;;;;;;;;5069712;28;20059;-48
2023/01/30 02:06:34;;;;;;;2.65;1.70;;;;;;;;;;5070539;28;20056;-48
2023/01/30 02:09:03;;;;;;;5.90;2.17;;;;;;;;;;5056425;28;20024;-48
2023/01/30 02:11:29;;;;;;;2.05;1.73;;;;;;;;;;5054647;28;20058;-45
2023/01/30 02:13:56;;;;;;;2.13;1.85;;;;;;;;;;5069244;28;20116;-45
2023/01/30 02:16:22;;;;;;;3.30;1.70;;;;;;;;;;5072016;28;20033;-45
2023/01/30 02:18:48;;;;;;;2.42;1.80;;;;;;;;;;5070642;28;20035;-47
2023/01/30 02:21:32;;;;;;;1.98;1.67;;;;;;;;;;5071219;28;20024;-45
2023/01/30 02:24:07;;;;;;;2.13;1.70;;;;;;;;;;5061549;28;20062;-46
2023/01/30 02:26:46;;;;;;;3.42;1.80;;;;;;;;;;5071143;28;20032;-44
2023/01/30 02:29:12;;;;;;;2.20;1.80;;;;;;;;;;5063807;28;20054;-45
2023/01/30 02:31:52;;;;;;;2.55;1.77;;;;;;;;;;5064752;28;20024;-44
2023/01/30 02:34:18;;;;;;;2.13;1.70;;;;;;;;;;5070648;28;20102;-44
2023/01/30 02:37:02;;;;;;;1.98;1.67;;;;;;;;;;5071499;28;20016;-44
2023/01/30 02:39:28;;;;;;;2.03;1.67;;;;;;;;;;5070795;28;20028;-46
2023/01/30 02:42:04;;;;;;;1.77;1.40;;;;;;;;;;5066420;28;20032;-45
2023/01/30 02:44:44;;;;;;;2.70;2.00;;;;;;;;;;5070250;28;20536;-44
2023/01/30 02:47:13;;;;;;;2.25;1.85;;;;;;;;;;5065846;28;20040;-45
2023/01/30 02:49:42;;;;;;;2.33;1.73;;;;;;;;;;5059194;28;20023;-45
2023/01/30 02:52:09;;;;;;;2.47;1.88;;;;;;;;;;5065368;28;20837;-44
2023/01/30 02:54:35;;;;;;;2.10;1.42;;;;;;;;;;5068665;28;20112;-45
2023/01/30 02:57:01;;;;;;;2.20;1.90;;;;;;;;;;5070161;28;20155;-46
2023/01/30 02:59:31;;;;;;;2.70;1.77;;;;;;;;;;5070472;28;20028;-45
2023/01/30 03:02:04;;;;;;;2.08;1.58;;;;;;;;;;5069884;28;20033;-45
2023/01/30 03:04:51;;;;;;;2.05;1.63;;;;;;;;;;5045457;28;20485;-45
2023/01/30 03:07:23;;;;;;;1.90;1.50;;;;;;;;;;5070856;28;20048;-45
2023/01/30 03:09:58;;;;;;;2.58;2.13;;;;;;;;;;5069981;28;20056;-48
2023/01/30 03:12:27;;;;;;;3.97;1.85;;;;;;;;;;5058501;28;20042;-45
2023/01/30 03:15:03;;;;;;;3.58;2.38;;;;;;;;;;5068382;28;20043;-49
2023/01/30 03:17:29;;;;;;;3.05;1.75;;;;;;;;;;5070742;28;20112;-44
2023/01/30 03:19:55;;;;;;;2.40;1.90;;;;;;;;;;5062621;28;20438;-46
2023/01/30 03:22:21;;;;;;;1.77;1.48;;;;;;;;;;5055398;28;20462;-45
2023/01/30 03:24:48;;;;;;;1.65;1.55;;;;;;;;;;5066048;28;20111;-45
2023/01/30 03:27:15;;;;;;;2.42;1.73;;;;;;;;;;5067525;28;20099;-48
2023/01/30 03:29:41;;;;;;;2.33;1.63;;;;;;;;;;5066636;28;20021;-44
2023/01/30 03:32:07;;;;;;;2.38;1.60;;;;;;;;;;5067880;28;20132;-46
2023/01/30 03:34:33;;;;;;;3.22;1.73;;;;;;;;;;5067609;28;20040;-48
2023/01/30 03:36:59;;;;;;;2.83;1.63;;;;;;;;;;5066463;28;20017;-45
2023/01/30 03:39:25;;;;;;;2.28;1.45;;;;;;;;;;5073258;28;20385;-44
2023/01/30 03:41:52;;;;;;;1.90;1.38;;;;;;;;;;5073196;28;20427;-48
2023/01/30 03:44:18;;;;;;;2.75;1.85;;;;;;;;;;5073761;28;20090;-45
2023/01/30 03:46:44;;;;;;;2.30;1.80;;;;;;;;;;5067570;28;20201;-49
2023/01/30 03:49:10;;;;;;;1.85;1.42;;;;;;;;;;5069605;28;20029;-46
2023/01/30 03:51:36;;;;;;;2.42;1.70;;;;;;;;;;5071123;28;20033;-45
2023/01/30 03:54:02;;;;;;;1.88;1.65;;;;;;;;;;5066990;28;20150;-44
2023/01/30 03:56:28;;;;;;;2.10;1.70;;;;;;;;;;5065122;28;20112;-46
2023/01/30 03:58:54;;;;;;;2.58;1.70;;;;;;;;;;5070159;28;20104;-45
2023/01/30 04:01:20;;;;;;;2.40;1.80;;;;;;;;;;5066270;28;20016;-44
2023/01/30 04:03:46;;;;;;;2.30;1.67;;;;;;;;;;5073191;28;20104;-47
2023/01/30 04:06:12;;;;;;;2.22;1.80;;;;;;;;;;5072358;28;20135;-45
2023/01/30 04:08:38;;;;;;;2.63;1.73;;;;;;;;;;5072667;28;20028;-45
2023/01/30 04:11:04;;;;;;;1.67;1.33;;;;;;;;;;5072454;28;20079;-44
2023/01/30 04:13:30;;;;;;;1.88;1.50;;;;;;;;;;5072454;28;20049;-46
2023/01/30 04:16:15;;;;;;;1.83;1.52;;;;;;;;;;5072295;28;20410;-45
2023/01/30 04:18:41;;;;;;;2.95;1.95;;;;;;;;;;5072406;28;20074;-44
2023/01/30 04:21:07;;;;;;;1.90;1.40;;;;;;;;;;5071305;28;20416;-44
2023/01/30 04:23:33;;;;;;;1.77;1.48;;;;;;;;;;5064756;28;20044;-45
2023/01/30 04:25:59;;;;;;;1.75;1.40;;;;;;;;;;5070648;28;20026;-44
2023/01/30 04:28:25;;;;;;;2.25;1.60;;;;;;;;;;5069692;28;20484;-45
2023/01/30 04:30:52;;;;;;;2.28;1.70;;;;;;;;;;5068082;28;20036;-45
2023/01/30 04:33:18;;;;;;;2.38;1.67;;;;;;;;;;5072332;28;20401;-46
2023/01/30 04:35:53;;;;;;;1.90;1.58;;;;;;;;;;5073048;28;20059;-49
2023/01/30 04:38:20;;;;;;;1.98;1.42;;;;;;;;;;5062163;28;20445;-45
2023/01/30 04:40:53;;;;;;;1.63;1.33;;;;;;;;;;5071088;28;20051;-46
2023/01/30 04:43:20;;;;;;;1.63;1.30;;;;;;;;;;5072319;28;20111;-44
2023/01/30 04:45:47;;;;;;;2.45;1.50;;;;;;;;;;5072371;28;20023;-45
2023/01/30 04:48:13;;;;;;;1.77;1.50;;;;;;;;;;5068235;28;20021;-46
2023/01/30 04:50:42;;;;;;;1.92;1.40;;;;;;;;;;5064741;28;20508;-46
2023/01/30 04:53:09;;;;;;;2.30;1.60;;;;;;;;;;5071400;28;20033;-44
2023/01/30 04:55:35;;;;;;;1.90;1.60;;;;;;;;;;5074527;28;20056;-44
2023/01/30 04:58:01;;;;;;;1.73;1.50;;;;;;;;;;5071541;28;20059;-48
2023/01/30 05:00:27;;;;;;;1.88;1.40;;;;;;;;;;5064938;28;20060;-44
2023/01/30 05:02:54;;;;;;;1.42;1.00;;;;;;;;;;5071976;28;20031;-45
2023/01/30 05:05:21;;;;;;;1.52;1.23;;;;;;;;;;5072370;28;20063;-44
2023/01/30 05:07:47;;;;;;;2.08;1.42;;;;;;;;;;5072496;28;20483;-47
2023/01/30 05:10:13;;;;;;;1.65;1.38;;;;;;;;;;5064372;28;20032;-46
2023/01/30 05:12:39;;;;;;;1.73;1.33;;;;;;;;;;5072166;28;20420;-44
2023/01/30 05:15:05;;;;;;;2.35;1.60;;;;;;;;;;5070934;28;20051;-44
2023/01/30 05:17:31;;;;;;;1.65;1.40;;;;;;;;;;5072815;28;20378;-45
2023/01/30 05:19:57;;;;;;;1.92;1.40;;;;;;;;;;5071088;28;20029;-45
2023/01/30 05:22:23;;;;;;;1.65;1.20;;;;;;;;;;5063700;28;20032;-44
2023/01/30 05:24:49;;;;;;;1.50;1.30;;;;;;;;;;5068487;28;20096;-49
2023/01/30 05:27:15;;;;;;;1.50;1.40;;;;;;;;;;5054242;28;20109;-46
2023/01/30 05:29:41;;;;;;;2.03;1.50;;;;;;;;;;5069185;28;20096;-45
2023/01/30 05:32:07;;;;;;;1.30;1.20;;;;;;;;;;5060637;28;20036;-46
2023/01/30 05:34:33;;;;;;;2.33;1.20;;;;;;;;;;5068844;28;20436;-46
2023/01/30 05:36:59;;;;;;;3.63;1.83;;;;;;;;;;5071043;28;20056;-46
2023/01/30 05:39:25;;;;;;;1.90;1.20;;;;;;;;;;5071550;28;20465;-47
2023/01/30 05:41:51;;;;;;;1.67;1.40;;;;;;;;;;5070602;28;20021;-45
2023/01/30 05:44:17;;;;;;;1.90;1.40;;;;;;;;;;5062935;28;20029;-45
2023/01/30 05:46:43;;;;;;;2.40;1.40;;;;;;;;;;5071849;28;20017;-45
2023/01/30 05:49:09;;;;;;;3.67;1.23;;;;;;;;;;5069978;28;20167;-45
2023/01/30 05:51:35;;;;;;;1.92;1.40;;;;;;;;;;5071990;28;20465;-46
2023/01/30 05:54:01;;;;;;;1.20;1.10;;;;;;;;;;5069954;28;20025;-45
2023/01/30 05:56:27;;;;;;;2.85;1.50;;;;;;;;;;5071278;28;20029;-45
2023/01/30 05:58:54;;;;;;;2.85;1.73;;;;;;;;;;5066871;28;20028;-45
2023/01/30 06:01:20;;;;;;;1.38;1.15;;;;;;;;;;5070892;28;20024;-45
2023/01/30 06:03:46;;;;;;;1.65;1.25;;;;;;;;;;5070901;28;20067;-45
2023/01/30 06:06:12;;;;;;;1.85;1.10;;;;;;;;;;5070241;28;20079;-45
2023/01/30 06:08:39;;;;;;;1.52;1.30;;;;;;;;;;5070239;28;20029;-47
2023/01/30 06:11:07;;;;;;;1.30;1.20;;;;;;;;;;5070314;28;20032;-45
2023/01/30 06:13:33;;;;;;;2.13;1.67;;;;;;;;;;5069901;28;20041;-45
2023/01/30 06:15:59;;;;;;;1.55;1.20;;;;;;;;;;5070032;28;20016;-44
2023/01/30 06:18:25;;;;;;;1.80;1.30;;;;;;;;;;5070591;28;20408;-45
2023/01/30 06:20:51;;;;;;;1.40;1.30;;;;;;;;;;5060749;28;20108;-47
2023/01/30 06:23:17;;;;;;;1.20;1.08;;;;;;;;;;5060924;28;20028;-44
2023/01/30 06:25:44;;;;;;;1.80;1.23;;;;;;;;;;5067321;28;20017;-46
2023/01/30 06:28:10;;;;;;;1.60;1.30;;;;;;;;;;5067828;28;20100;-48
2023/01/30 06:30:36;;;;;;;2.67;1.65;;;;;;;;;;5067366;28;20040;-45
2023/01/30 06:33:02;;;;;;;1.98;1.50;;;;;;;;;;5056629;28;20021;-45
2023/01/30 06:35:28;;;;;;;2.72;1.40;;;;;;;;;;5071440;28;20071;-48
2023/01/30 06:37:54;;;;;;;1.63;1.30;;;;;;;;;;5068772;28;20416;-48
2023/01/30 06:40:20;;;;;;;1.48;1.20;;;;;;;;;;5066242;28;20032;-47
2023/01/30 06:42:46;;;;;;;1.58;1.20;;;;;;;;;;5069248;28;20032;-44
2023/01/30 06:45:16;;;;;;;3.33;1.67;;;;;;;;;;5069811;28;20033;-46
2023/01/30 06:47:49;;;;;;;3.63;1.60;;;;;;;;;;5056360;28;20024;-44
2023/01/30 06:50:16;;;;;;;2.78;1.02;;;;;;;;;;5052621;28;20057;-46
2023/01/30 06:52:43;;;;;;;2.97;1.10;;;;;;;;;;5070352;28;20059;-45
2023/01/30 06:55:10;;;;;;;3.22;1.60;;;;;;;;;;5069558;28;20071;-44
2023/01/30 06:57:36;;;;;;;13.55;1.25;;;;;;;;;;5070897;28;20025;-44
2023/01/30 07:00:06;;;;;;;2.55;1.33;;;;;;;;;;5068159;28;20032;-43
2023/01/30 07:02:34;;;;;;;3.97;1.50;;;;;;;;;;5057659;28;20021;-44
2023/01/30 07:05:01;;;;;;;3.95;1.27;;;;;;;;;;5054422;28;20116;-45
2023/01/30 07:07:27;;;;;;;2.70;1.13;;;;;;;;;;5063483;28;20056;-44
2023/01/30 07:09:53;;;;;;;4.60;1.95;;;;;;;;;;5057675;28;20374;-44
2023/01/30 07:12:19;;;;;;;2.30;1.25;;;;;;;;;;5062488;28;20050;-44
2023/01/30 07:14:45;;;;;;;2.10;1.60;;;;;;;;;;5067131;28;20047;-43
2023/01/30 07:17:11;;;;;;;2.72;1.33;;;;;;;;;;5066269;28;20854;-43
2023/01/30 07:19:37;;;;;;;5.30;1.40;;;;;;;;;;5061048;28;20461;-43
2023/01/30 07:22:04;;;;;;;4.68;1.70;;;;;;;;;;5061721;28;20576;-43
2023/01/30 07:24:30;;;;;;;3.70;1.48;;;;;;;;;;5063199;28;20036;-43
2023/01/30 07:26:56;;;;;;;2.72;1.50;;;;;;;;;;5070956;28;20355;-43
2023/01/30 07:29:22;;;;;;;2.05;1.17;;;;;;;;;;5066342;28;20026;-44
2023/01/30 07:31:48;;;;;;;2.47;1.10;;;;;;;;;;5064726;28;20025;-44
2023/01/30 07:34:14;;;;;;;2.15;1.15;;;;;;;;;;5063315;28;20037;-44
2023/01/30 07:36:40;;;;;;;2.20;1.30;;;;;;;;;;5060903;28;20033;-45
2023/01/30 07:39:08;;;;;;;3.70;1.75;;;;;;;;;;5063829;28;20029;-44
2023/01/30 07:41:34;;;;;;;3.35;2.03;;;;;;;;;;5065669;28;20466;-44
2023/01/30 07:44:00;;;;;;;3.92;1.70;;;;;;;;;;5070891;28;20151;-43
2023/01/30 07:46:27;;;;;;;3.95;1.80;;;;;;;;;;5068770;28;20450;-44
2023/01/30 07:48:53;;;;;;;3.80;1.33;;;;;;;;;;5060233;28;20078;-43
2023/01/30 07:51:19;;;;;;;4.45;1.98;;;;;;;;;;5059868;28;20025;-46
2023/01/30 07:53:49;;;;;;;2.95;1.80;;;;;;;;;;5061162;28;20068;-43
2023/01/30 07:56:18;;;;;;;4.38;1.77;;;;;;;;;;5064977;28;20024;-43
2023/01/30 07:58:44;;;;;;;1.48;1.05;;;;;;;;;;5059327;28;20017;-44
2023/01/30 08:01:10;;;;;;;5.05;1.75;;;;;;;;;;5073353;28;20077;-46
2023/01/30 08:03:36;;;;;;;3.78;1.98;;;;;;;;;;5073235;28;20025;-43
2023/01/30 08:06:01;;;;;;;1.83;1.33;;;;;;;;;;5071850;28;20060;-45
2023/01/30 08:08:27;;;;;;;5.65;1.55;;;;;;;;;;5068628;28;20029;-44
2023/01/30 08:10:53;;;;;;;3.20;1.45;;;;;;;;;;5070534;28;20044;-45
2023/01/30 08:13:19;;;;;;;3.55;1.65;;;;;;;;;;5072823;28;20355;-43
2023/01/30 08:15:45;;;;;;;3.33;1.30;;;;;;;;;;5072585;28;20462;-43
2023/01/30 08:18:11;;;;;;;2.90;1.90;;;;;;;;;;5081578;28;20138;-42
2023/01/30 08:20:37;;;;;;;5.28;1.80;;;;;;;;;;5072511;28;20028;-42
2023/01/30 08:23:03;;;;;;;4.18;1.60;;;;;;;;;;5070934;28;20056;-43
2023/01/30 08:25:30;;;;;;;12.10;2.35;;;;;;;;;;5063214;28;20030;-43
2023/01/30 08:27:57;;;;;;;5.55;2.08;;;;;;;;;;5070021;28;20029;-44
2023/01/30 08:30:23;;;;;;;2.42;1.40;;;;;;;;;;5072210;28;20473;-42
2023/01/30 08:32:49;;;;;;;4.72;2.00;;;;;;;;;;5071716;28;20043;-44
2023/01/30 08:35:16;;;;;;;4.13;1.33;;;;;;;;;;5060935;28;20029;-43
2023/01/30 08:37:42;;;;;;;3.65;1.55;;;;;;;;;;5069553;28;20029;-44
2023/01/30 08:40:09;;;;;;;3.40;1.40;;;;;;;;;;5064840;28;20031;-42
2023/01/30 08:42:35;;;;;;;1.63;1.23;;;;;;;;;;5065206;28;20147;-44
2023/01/30 08:45:01;;;;;;;2.17;1.35;;;;;;;;;;5080060;28;20052;-43
2023/01/30 08:47:27;;;;;;;1.88;1.20;;;;;;;;;;5071762;28;20017;-43
2023/01/30 08:49:53;;;;;;;4.18;1.33;;;;;;;;;;5052797;28;20025;-46
2023/01/30 08:52:19;;;;;;;2.35;1.50;;;;;;;;;;5072039;28;20096;-44
2023/01/30 08:54:46;;;;;;;3.08;1.30;;;;;;;;;;5071172;28;20113;-43
2023/01/30 08:57:13;;;;;;;3.30;1.33;;;;;;;;;;5071313;28;20028;-43
2023/01/30 08:59:39;;;;;;;2.08;1.40;;;;;;;;;;5070378;28;20039;-45
2023/01/30 09:02:05;;;;;;;4.72;1.58;;;;;;;;;;5060802;28;20020;-43
2023/01/30 09:04:31;;;;;;;3.22;1.38;;;;;;;;;;5032435;28;1108053;-43
2023/01/30 09:06:57;;;;;;;2.72;1.30;;;;;;;;;;5071573;28;20086;-44
2023/01/30 09:09:23;;;;;;;4.82;1.52;;;;;;;;;;5081042;28;20028;-44
2023/01/30 09:11:49;;;;;;;2.90;1.70;;;;;;;;;;5074367;28;20477;-43
2023/01/30 09:14:18;;;;;;;2.75;1.40;;;;;;;;;;5071789;28;20086;-44
2023/01/30 09:16:54;;;;;;;2.17;1.50;;;;;;;;;;5071590;28;20103;-44
2023/01/30 09:19:20;;;;;;;3.45;1.77;;;;;;;;;;5072054;28;20099;-43
2023/01/30 09:21:48;;;;;;;3.95;1.50;;;;;;;;;;5062467;28;20033;-43
2023/01/30 09:24:14;;;;;;;3.95;1.83;;;;;;;;;;5072271;28;20048;-45
2023/01/30 09:26:43;;;;;;;1.88;1.00;;;;;;;;;;5066800;28;20059;-43
2023/01/30 09:29:09;;;;;;;2.03;1.20;;;;;;;;;;5071538;28;20130;-43
2023/01/30 09:31:35;;;;;;;2.13;1.60;;;;;;;;;;5071486;28;20086;-43
2023/01/30 09:34:01;;;;;;;6.88;1.77;;;;;;;;;;5069113;28;20032;-45
2023/01/30 09:36:27;;;;;;;2.35;1.33;;;;;;;;;;5070057;28;20024;-43
2023/01/30 09:38:53;;;;;;;1.90;1.48;;;;;;;;;;5070956;28;20012;-44
2023/01/30 09:41:19;;;;;;;3.33;1.75;;;;;;;;;;5072078;28;20373;-43
2023/01/30 09:44:28;;;;;;;2.58;1.30;;;;;;;;;;5071510;28;20037;-44
2023/01/30 09:47:03;;;;;;;4.18;1.48;;;;;;;;;;4983364;28;20117;-43
2023/01/30 09:49:29;;;;;;;3.20;1.33;;;;;;;;;;4977279;28;20053;-44
2023/01/30 09:52:03;;;;;;;3.13;1.40;;;;;;;;;;5028055;28;20032;-44
2023/01/30 09:54:30;;;;;;;3.65;1.35;;;;;;;;;;5071283;28;20068;-45
2023/01/30 09:57:08;;;;;;;2.17;1.80;;;;;;;;;;5071204;28;20023;-43
2023/01/30 09:59:39;;;;;;;4.53;1.40;;;;;;;;;;5073028;28;20132;-43
2023/01/30 10:02:08;;;;;;;1.27;1.05;;;;;;;;;;5063919;28;20408;-45
2023/01/30 10:04:40;;;;;;;2.25;1.67;;;;;;;;;;5072826;28;20140;-45
2023/01/30 10:07:19;;;;;;;4.85;1.30;;;;;;;;;;5070705;28;20485;-43
2023/01/30 10:10:08;;;;;;;2.92;1.30;;;;;;;;;;5071240;28;20543;-43
2023/01/30 10:12:40;;;;;;;2.85;1.00;;;;;;;;;;5069149;28;20833;-44
2023/01/30 10:15:06;;;;;;;;;;;;;;;;;;5070613;28;20496;-44
2023/01/30 10:17:57;;;;;;;2.53;1.30;;;;;;;;;;5074133;28;19904;-44
2023/01/30 10:20:31;;;;;;;3.90;1.55;;;;;;;;;;5074704;28;20469;-43
2023/01/30 10:23:35;;;;;;;1.92;1.40;;;;;;;;;;5070486;28;20025;-43
2023/01/30 10:26:08;;;;;;;1.60;1.02;;;;;;;;;;4969300;28;20760;-43
2023/01/30 10:28:55;;;;;;;4.55;1.10;;;;;;;;;;4970243;28;20558;-43
2023/01/30 10:31:25;;;;;;;1.45;0.90;;;;;;;;;;4972392;28;20433;-43
2023/01/30 10:33:59;;;;;;;3.63;1.20;;;;;;;;;;4969726;28;20061;-45
2023/01/30 10:36:28;;;;;;;2.17;1.20;;;;;;;;;;4970174;28;20134;-43
2023/01/30 10:38:56;;;;;;;4.22;1.77;;;;;;;;;;4952701;28;20039;-44
2023/01/30 10:41:37;;;;;;;1.83;1.00;;;;;;;;;;4970060;28;20023;-43
2023/01/30 10:44:10;;;;;;;2.75;1.27;;;;;;;;;;4968903;28;20047;-43
2023/01/30 10:46:38;;;;;;;1.73;0.77;;;;;;;;;;4970334;28;20034;-44
2023/01/30 10:49:06;;;;;;;1.60;1.20;;;;;;;;;;4968368;28;20039;-43
2023/01/30 10:51:38;;;;;;;1.75;0.68;;;;;;;;;;4969753;28;20717;-43
2023/01/30 10:54:04;;;;;;;;;;;;;;;;;;4969103;28;20078;-43
2023/01/30 10:56:40;;;;;;;3.90;0.95;;;;;;;;;;5008406;28;19931;-43
2023/01/30 10:59:23;;;;;;;4.45;1.25;;;;;;;;;;5066494;28;20029;-44
2023/01/30 11:01:57;;;;;;;1.35;0.98;;;;;;;;;;5070504;28;20021;-45
2023/01/30 11:04:23;;;;;;;1.77;1.00;;;;;;;;;;5070870;28;20021;-43
2023/01/30 11:06:49;;;;;;;2.33;1.00;;;;;;;;;;5069131;28;20067;-46
2023/01/30 11:09:15;;;;;;;3.50;1.17;;;;;;;;;;5064127;28;20032;-44
2023/01/30 11:11:44;;;;;;;1.92;0.98;;;;;;;;;;5066274;28;20024;-43
2023/01/30 11:14:11;;;;;;;1.55;0.90;;;;;;;;;;5055524;28;20048;-44
2023/01/30 11:16:42;;;;;;;6.68;0.82;;;;;;;;;;5070706;28;20025;-51
2023/01/30 11:19:09;;;;;;;2.40;0.70;;;;;;;;;;5072387;28;20673;-48
2023/01/30 11:21:35;;;;;;;2.55;0.77;;;;;;;;;;5064476;28;20248;-45
2023/01/30 11:24:11;;;;;;;2.30;1.00;;;;;;;;;;5069495;28;20016;-45
2023/01/30 11:26:37;;;;;;;6.07;1.00;;;;;;;;;;5070914;28;20120;-45
2023/01/30 11:29:29;;;;;;;1.60;1.00;;;;;;;;;;5069150;28;20493;-45
2023/01/30 11:31:55;;;;;;;;;;;;;;;;;;5066157;28;20037;-45
2023/01/30 11:34:22;;;;;;;1.98;0.93;;;;;;;;;;5069834;28;20300;-45
2023/01/30 11:36:49;;;;;;;1.67;0.90;;;;;;;;;;5067744;28;20074;-47
2023/01/30 11:39:16;;;;;;;1.60;1.02;;;;;;;;;;5069424;28;20531;-45
2023/01/30 11:42:03;;;;;;;2.15;1.00;;;;;;;;;;5070478;28;20107;-46
2023/01/30 11:44:34;;;;;;;1.50;1.08;;;;;;;;;;5069771;28;20457;-48
2023/01/30 11:47:01;;;;;;;0.98;0.70;;;;;;;;;;5069533;28;20377;-45
2023/01/30 11:49:30;;;;;;;1.17;0.80;;;;;;;;;;5067902;28;20021;-46
2023/01/30 11:51:56;;;;;;;3.75;0.85;;;;;;;;;;5051094;28;20031;-48
2023/01/30 11:54:32;;;;;;;2.17;0.90;;;;;;;;;;5066051;28;20041;-45
2023/01/30 11:57:01;;;;;;;1.38;0.70;;;;;;;;;;5066866;28;20025;-47
2023/01/30 11:59:40;;;;;;;1.52;1.00;;;;;;;;;;5070154;28;20480;-46
2023/01/30 12:02:19;;;;;;;1.52;0.90;;;;;;;;;;5074559;28;20498;-46
2023/01/30 12:04:46;;;;;;;1.58;0.80;;;;;;;;;;5070889;28;20469;-45
2023/01/30 12:07:17;;;;;;;2.25;1.13;;;;;;;;;;5073052;28;20029;-46
2023/01/30 12:09:43;;;;;;;2.30;1.08;;;;;;;;;;5075385;28;20025;-46
2023/01/30 12:12:25;;;;;;;1.00;0.80;;;;;;;;;;5069959;28;20025;-46
2023/01/30 12:14:52;;;;;;;1.58;1.02;;;;;;;;;;5072760;28;20021;-46
2023/01/30 12:17:33;;;;;;;1.23;0.80;;;;;;;;;;5073501;28;20037;-46
2023/01/30 12:20:12;;;;;;;2.28;1.42;;;;;;;;;;5072285;28;20040;-45
2023/01/30 12:22:40;;;;;;;1.20;0.80;;;;;;;;;;5072883;28;20028;-47
2023/01/30 12:25:30;;;;;;;1.13;0.80;;;;;;;;;;5079328;28;20167;-45
2023/01/30 12:28:01;;;;;;;3.35;0.80;;;;;;;;;;5034787;28;20098;-46
2023/01/30 12:30:32;;;;;;;2.60;0.80;;;;;;;;;;5073690;28;20028;-47
2023/01/30 12:33:02;;;;;;;2.05;0.80;;;;;;;;;;5072069;28;20028;-45
2023/01/30 12:35:32;;;;;;;1.08;0.60;;;;;;;;;;5073018;28;20032;-45
2023/01/30 12:38:09;;;;;;;1.00;0.77;;;;;;;;;;5071782;28;20040;-44
2023/01/30 12:40:38;;;;;;;1.42;0.77;;;;;;;;;;5072756;28;20107;-45
2023/01/30 12:43:07;;;;;;;1.88;0.73;;;;;;;;;;5078308;28;20066;-45
2023/01/30 12:45:49;;;;;;;1.67;0.90;;;;;;;;;;5076708;28;20036;-49
2023/01/30 12:48:29;;;;;;;1.17;0.85;;;;;;;;;;5081594;28;20025;-44
2023/01/30 12:50:58;;;;;;;1.27;0.70;;;;;;;;;;5072574;28;20028;-47
2023/01/30 12:53:31;;;;;;;1.63;0.75;;;;;;;;;;5071985;28;20036;-45
2023/01/30 12:56:17;;;;;;;0.90;0.60;;;;;;;;;;5069335;28;20021;-45
2023/01/30 12:58:51;;;;;;;1.35;0.70;;;;;;;;;;5062859;28;20025;-45
2023/01/30 13:01:26;;;;;;;1.10;0.70;;;;;;;;;;5072952;28;20051;-45
2023/01/30 13:03:55;;;;;;;1.50;0.75;;;;;;;;;;5071298;28;20077;-45
2023/01/30 13:06:45;;;;;;;1.13;1.02;;;;;;;;;;5072444;28;20048;-47
2023/01/30 13:09:27;;;;;;;1.42;0.88;;;;;;;;;;5070081;28;20381;-45
2023/01/30 13:12:04;;;;;;;1.17;0.67;;;;;;;;;;5071986;28;20346;-45
2023/01/30 13:14:35;;;;;;;1.42;0.77;;;;;;;;;;5061932;28;20038;-46
2023/01/30 13:17:08;;;;;;;1.23;0.93;;;;;;;;;;5063984;28;20025;-46
2023/01/30 13:19:50;;;;;;;1.23;0.80;;;;;;;;;;5072067;28;20047;-46
2023/01/30 13:22:16;;;;;;;;;;;;;;;;;;5067863;28;20050;-45
2023/01/30 13:24:53;;;;;;;2.67;0.70;;;;;;;;;;5071595;28;19933;-45
2023/01/30 13:27:21;;;;;;;1.17;0.85;;;;;;;;;;5072518;28;20035;-45
2023/01/30 13:29:48;;;;;;;1.50;0.93;;;;;;;;;;5069201;28;20107;-46
2023/01/30 13:32:34;;;;;;;0.90;0.80;;;;;;;;;;5071297;28;20021;-44
2023/01/30 13:35:01;;;;;;;1.48;1.38;;;;;;;;;;5070544;28;20119;-45
2023/01/30 13:37:27;;;;;;;1.52;0.80;;;;;;;;;;5072610;28;20032;-44
2023/01/30 13:40:00;;;;;;;1.83;1.00;;;;;;;;;;5070862;28;20024;-45
2023/01/30 13:42:29;;;;;;;2.83;1.13;;;;;;;;;;5072451;28;20044;-44
2023/01/30 13:44:56;;;;;;;1.25;0.60;;;;;;;;;;5070646;28;20107;-45
2023/01/30 13:47:40;;;;;;;1.30;1.00;;;;;;;;;;5064694;28;20028;-45
2023/01/30 13:50:18;;;;;;;1.45;0.75;;;;;;;;;;5070208;28;20032;-45
2023/01/30 13:52:52;;;;;;;1.58;0.80;;;;;;;;;;5068624;28;20052;-44
2023/01/30 13:55:21;;;;;;;0.98;0.88;;;;;;;;;;5071522;28;20048;-45
2023/01/30 13:57:55;;;;;;;1.25;0.70;;;;;;;;;;5071712;28;20031;-45
2023/01/30 14:00:31;;;;;;;1.98;0.68;;;;;;;;;;5072121;28;20150;-44
2023/01/30 14:03:03;;;;;;;1.58;0.88;;;;;;;;;;5070493;28;20021;-45
2023/01/30 14:05:29;;;;;;;;;;;;;;;;;;5069112;28;20048;-48
2023/01/30 14:07:55;;;;;;;1.35;0.77;;;;;;;;;;5070047;28;19908;-46
2023/01/30 14:10:22;;;;;;;1.25;0.60;;;;;;;;;;5071671;28;20092;-45
2023/01/30 14:12:50;;;;;;;1.67;1.15;;;;;;;;;;5073205;28;20028;-44
2023/01/30 14:15:19;;;;;;;1.98;0.82;;;;;;;;;;5069834;28;20473;-44
2023/01/30 14:18:01;;;;;;;2.50;0.70;;;;;;;;;;5071659;28;20103;-46
2023/01/30 14:20:28;;;;;;;1.05;0.75;;;;;;;;;;5063529;28;20104;-44
2023/01/30 14:22:55;;;;;;;0.70;0.70;;;;;;;;;;5069582;28;20461;-45
2023/01/30 14:25:31;;;;;;;0.80;0.80;;;;;;;;;;5071320;28;20043;-47
2023/01/30 14:28:01;;;;;;;1.83;0.70;;;;;;;;;;5070211;28;20377;-47
2023/01/30 14:30:37;;;;;;;2.42;0.82;;;;;;;;;;5071105;28;20101;-45
2023/01/30 14:33:18;;;;;;;1.17;0.80;;;;;;;;;;5069883;28;20492;-44
2023/01/30 14:35:45;;;;;;;1.13;0.70;;;;;;;;;;5071349;28;20041;-44
2023/01/30 14:38:18;;;;;;;1.40;0.77;;;;;;;;;;5059654;28;20262;-47
2023/01/30 14:40:45;;;;;;;2.55;1.10;;;;;;;;;;5070708;28;20028;-44
2023/01/30 14:43:11;;;;;;;3.05;0.80;;;;;;;;;;5070400;28;20086;-46
2023/01/30 14:45:47;;;;;;;1.00;0.90;;;;;;;;;;5071240;28;20028;-47
2023/01/30 14:48:32;;;;;;;3.53;1.70;;;;;;;;;;5064788;28;20028;-46
2023/01/30 14:51:17;;;;;;;0.85;0.57;;;;;;;;;;5070435;28;20078;-44
2023/01/30 14:54:00;;;;;;;0.82;0.70;;;;;;;;;;5070678;28;20119;-44
2023/01/30 14:56:35;;;;;;;1.60;0.75;;;;;;;;;;5069687;28;20028;-44
2023/01/30 14:59:02;;;;;;;0.95;0.63;;;;;;;;;;5077138;28;20456;-45
2023/01/30 15:01:48;;;;;;;0.75;0.50;;;;;;;;;;5071130;28;20021;-45
2023/01/30 15:04:15;;;;;;;1.05;0.77;;;;;;;;;;5064035;28;20047;-45